createdAt,value
2023-03-19T00:02:25.558Z,7.71
2023-03-19T00:05:28.169Z,7.74
2023-03-19T00:08:30.506Z,7.82
2023-03-19T00:11:34.211Z,7.65
2023-03-19T00:14:36.522Z,7.62
2023-03-19T00:17:39.117Z,7.68
2023-03-19T00:20:41.563Z,7.68
2023-03-19T00:23:44.170Z,7.49
2023-03-19T00:26:46.895Z,7.64
2023-03-19T00:29:50.068Z,7.64
2023-03-19T00:32:52.546Z,7.54
2023-03-19T00:35:55.196Z,7.63
2023-03-19T00:38:57.657Z,7.60
2023-03-19T00:42:00.684Z,7.57
2023-03-19T00:45:03.604Z,7.56
2023-03-19T00:48:08.632Z,7.52
2023-03-19T00:51:11.470Z,7.48
2023-03-19T00:54:14.163Z,7.39
2023-03-19T00:57:16.902Z,7.22
2023-03-19T01:00:19.988Z,7.30
2023-03-19T01:03:22.393Z,7.34
2023-03-19T01:06:25.010Z,7.13
2023-03-19T01:09:27.497Z,7.18
2023-03-19T01:12:30.188Z,7.24
2023-03-19T01:15:44.594Z,7.22
2023-03-19T01:18:47.309Z,7.25
2023-03-19T01:21:50.004Z,7.10
2023-03-19T01:24:53.230Z,7.09
2023-03-19T01:27:55.758Z,7.12
2023-03-19T01:31:00.938Z,7.05
2023-03-19T01:34:04.866Z,7.03
2023-03-19T01:37:07.634Z,6.97
2023-03-19T01:40:15.136Z,6.94
2023-03-19T01:43:23.366Z,7.01
2023-03-19T01:46:32.346Z,6.96
2023-03-19T01:49:37.746Z,6.93
2023-03-19T01:52:41.846Z,6.91
2023-03-19T01:55:46.834Z,6.88
2023-03-19T01:58:53.354Z,6.88
2023-03-19T02:02:05.102Z,6.83
2023-03-19T02:05:11.369Z,6.83
2023-03-19T02:08:17.050Z,6.84
2023-03-19T02:11:20.965Z,6.85
2023-03-19T02:14:24.122Z,6.76
2023-03-19T02:17:29.170Z,6.72
2023-03-19T02:21:07.106Z,6.73
2023-03-19T02:24:14.786Z,6.56
2023-03-19T02:27:17.950Z,6.57
2023-03-19T02:30:28.637Z,6.41
2023-03-19T02:33:31.660Z,6.37
2023-03-19T02:36:44.448Z,6.36
2023-03-19T02:39:58.385Z,6.40
2023-03-19T02:43:01.116Z,6.26
2023-03-19T02:49:57.933Z,6.31
2023-03-19T03:08:46.952Z,6.19
2023-03-19T03:27:33.699Z,6.09
2023-03-19T03:30:36.833Z,6.12
2023-03-19T03:33:39.377Z,6.06
2023-03-19T03:36:42.265Z,6.06
2023-03-19T03:39:44.640Z,6.08
2023-03-19T03:42:47.399Z,6.08
2023-03-19T03:45:50.049Z,5.96
2023-03-19T03:48:53.013Z,5.98
2023-03-19T03:51:55.351Z,5.84
2023-03-19T03:54:58.538Z,5.90
2023-03-19T03:58:01.034Z,6.02
2023-03-19T04:01:04.154Z,6.06
2023-03-19T04:04:07.147Z,5.94
2023-03-19T04:07:10.448Z,6.04
2023-03-19T04:10:15.450Z,6.05
2023-03-19T04:13:17.773Z,5.94
2023-03-19T04:16:21.369Z,5.70
2023-03-19T04:19:24.007Z,5.49
2023-03-19T04:22:27.350Z,5.59
2023-03-19T04:25:29.723Z,5.38
2023-03-19T04:28:33.076Z,5.37
2023-03-19T04:31:35.613Z,5.44
2023-03-19T04:34:38.588Z,5.29
2023-03-19T04:37:40.916Z,5.27
2023-03-19T04:40:43.797Z,5.39
2023-03-19T04:43:46.154Z,5.36
2023-03-19T04:46:51.168Z,5.43
2023-03-19T04:49:54.104Z,5.41
2023-03-19T04:52:57.690Z,5.31
2023-03-19T04:56:00.225Z,5.34
2023-03-19T04:59:02.870Z,5.19
2023-03-19T05:02:06.126Z,5.29
2023-03-19T05:05:15.168Z,5.21
2023-03-19T05:08:18.126Z,5.01
2023-03-19T05:11:21.496Z,5.07
2023-03-19T05:14:25.301Z,5.01
2023-03-19T05:17:29.981Z,5.02
2023-03-19T05:20:35.855Z,5.03
2023-03-19T05:23:39.698Z,4.92
2023-03-19T05:26:42.517Z,5.06
2023-03-19T05:29:46.971Z,5.10
2023-03-19T05:32:50.867Z,5.21
2023-03-19T05:35:54.824Z,5.10
2023-03-19T05:38:58.348Z,5.18
2023-03-19T05:42:01.452Z,5.28
2023-03-19T05:45:05.460Z,5.23
2023-03-19T05:48:09.083Z,5.33
2023-03-19T05:51:12.268Z,5.38
2023-03-19T05:54:15.249Z,5.50
2023-03-19T05:57:19.024Z,5.59
2023-03-19T06:00:22.635Z,5.49
2023-03-19T06:03:27.131Z,5.63
2023-03-19T06:06:29.462Z,5.71
2023-03-19T06:09:32.631Z,5.93
2023-03-19T06:12:36.219Z,6.40
2023-03-19T06:15:42.032Z,6.67
2023-03-19T06:18:45.777Z,7.08
2023-03-19T06:21:48.928Z,7.11
2023-03-19T06:24:52.218Z,7.01
2023-03-19T06:27:55.625Z,7.17
2023-03-19T06:30:58.527Z,7.28
2023-03-19T06:34:01.863Z,7.41
2023-03-19T06:37:04.534Z,7.66
2023-03-19T06:40:07.597Z,7.79
2023-03-19T06:43:10.010Z,7.84
2023-03-19T06:46:13.087Z,7.99
2023-03-19T06:49:15.524Z,8.21
2023-03-19T06:52:18.295Z,8.13
2023-03-19T06:55:20.971Z,8.06
2023-03-19T06:58:23.563Z,8.09
2023-03-19T07:01:25.999Z,7.84
2023-03-19T07:04:28.727Z,7.66
2023-03-19T07:07:31.753Z,8.00
2023-03-19T07:10:34.486Z,8.07
2023-03-19T07:13:38.051Z,8.13
2023-03-19T07:16:40.770Z,7.87
2023-03-19T07:19:43.110Z,8.34
2023-03-19T07:22:45.903Z,8.22
2023-03-19T07:25:48.399Z,8.34
2023-03-19T07:28:51.081Z,8.24
2023-03-19T07:31:53.424Z,8.34
2023-03-19T07:34:56.183Z,8.56
2023-03-19T07:37:59.495Z,8.55
2023-03-19T07:41:03.069Z,8.52
2023-03-19T07:44:06.346Z,8.49
2023-03-19T07:47:22.565Z,8.77
2023-03-19T07:50:31.343Z,8.94
2023-03-19T07:53:34.040Z,9.13
2023-03-19T07:56:36.384Z,9.28
2023-03-19T07:59:39.004Z,9.60
2023-03-19T08:02:42.822Z,9.56
2023-03-19T08:05:47.758Z,9.93
2023-03-19T08:08:50.600Z,10.00
2023-03-19T08:11:53.259Z,9.83
2023-03-19T08:14:56.127Z,9.98
2023-03-19T08:18:03.784Z,9.93
2023-03-19T08:21:06.318Z,9.95
2023-03-19T08:24:08.930Z,10.25
2023-03-19T08:27:11.510Z,10.46
2023-03-19T08:30:14.366Z,10.52
2023-03-19T08:33:16.875Z,10.72
2023-03-19T08:36:19.562Z,10.70
2023-03-19T08:39:22.026Z,10.94
2023-03-19T08:42:24.825Z,11.17
2023-03-19T08:45:27.139Z,10.90
2023-03-19T08:48:29.793Z,10.89
2023-03-19T08:51:32.240Z,11.10
2023-03-19T08:54:35.041Z,11.37
2023-03-19T08:57:37.581Z,11.12
2023-03-19T09:00:40.189Z,11.51
2023-03-19T09:03:43.857Z,11.28
2023-03-19T09:06:46.814Z,11.22
2023-03-19T09:09:49.278Z,11.53
2023-03-19T09:12:51.935Z,11.76
2023-03-19T09:15:54.312Z,11.74
2023-03-19T09:18:59.322Z,11.90
2023-03-19T09:22:01.875Z,12.12
2023-03-19T09:25:04.787Z,12.28
2023-03-19T09:28:07.195Z,12.10
2023-03-19T09:31:11.536Z,12.00
2023-03-19T09:34:14.095Z,12.42
2023-03-19T09:37:16.768Z,12.74
2023-03-19T09:40:27.699Z,12.38
2023-03-19T09:43:42.117Z,12.74
2023-03-19T09:46:57.595Z,12.33
2023-03-19T09:50:11.428Z,12.67
2023-03-19T09:53:19.366Z,12.82
2023-03-19T09:56:22.536Z,12.75
2023-03-19T09:59:27.604Z,12.99
2023-03-19T10:02:42.940Z,13.05
2023-03-19T10:06:33.781Z,13.21
2023-03-19T10:09:49.219Z,13.46
2023-03-19T10:13:03.937Z,13.41
2023-03-19T10:16:14.669Z,13.33
2023-03-19T10:19:22.700Z,12.96
2023-03-19T10:22:32.339Z,13.36
2023-03-19T10:25:41.578Z,13.46
2023-03-19T10:28:47.398Z,13.40
2023-03-19T10:31:50.175Z,13.03
2023-03-19T10:34:55.828Z,13.26
2023-03-19T10:38:19.377Z,13.60
2023-03-19T10:41:22.199Z,13.80
2023-03-19T10:44:31.959Z,13.72
2023-03-19T10:47:39.643Z,13.85
2023-03-19T10:50:52.851Z,13.96
2023-03-19T10:53:57.443Z,14.33
2023-03-19T10:57:01.482Z,14.58
2023-03-19T11:00:14.323Z,14.52
2023-03-19T11:03:33.217Z,14.29
2023-03-19T11:06:37.912Z,14.52
2023-03-19T11:09:44.214Z,14.29
2023-03-19T11:12:51.971Z,14.23
2023-03-19T11:15:59.260Z,14.66
2023-03-19T11:19:01.675Z,14.81
2023-03-19T11:22:34.079Z,15.08
2023-03-19T11:25:42.277Z,15.26
2023-03-19T11:28:50.455Z,14.63
2023-03-19T11:32:29.528Z,14.77
2023-03-19T11:35:45.107Z,14.39
2023-03-19T11:39:12.370Z,14.78
2023-03-19T11:42:38.806Z,15.14
2023-03-19T11:46:03.030Z,15.18
2023-03-19T11:49:11.648Z,15.37
2023-03-19T11:52:29.956Z,15.42
2023-03-19T11:55:57.384Z,15.74
2023-03-19T11:59:18.900Z,15.71
2023-03-19T12:02:27.157Z,15.67
2023-03-19T12:05:35.829Z,16.03
2023-03-19T12:08:42.215Z,15.87
2023-03-19T12:12:01.939Z,15.84
2023-03-19T12:15:16.354Z,15.83
2023-03-19T12:18:24.958Z,15.87
2023-03-19T12:21:40.561Z,15.69
2023-03-19T12:25:07.472Z,15.73
2023-03-19T12:28:34.481Z,16.10
2023-03-19T12:31:49.302Z,16.41
2023-03-19T12:35:09.138Z,16.53
2023-03-19T12:38:31.147Z,16.58
2023-03-19T12:41:39.258Z,16.48
2023-03-19T12:44:47.897Z,16.58
2023-03-19T12:47:54.461Z,16.53
2023-03-19T12:51:05.898Z,16.70
2023-03-19T12:54:18.017Z,17.05
2023-03-19T12:57:35.668Z,16.91
2023-03-19T13:00:49.200Z,17.34
2023-03-19T13:04:24.503Z,17.43
2023-03-19T13:07:45.298Z,17.45
2023-03-19T13:10:47.892Z,17.06
2023-03-19T13:14:13.615Z,17.15
2023-03-19T13:17:45.075Z,17.28
2023-03-19T13:20:47.308Z,17.18
2023-03-19T13:24:02.259Z,16.94
2023-03-19T13:27:08.243Z,16.85
2023-03-19T13:30:10.982Z,16.66
2023-03-19T13:33:21.238Z,16.53
2023-03-19T13:36:28.146Z,16.20
2023-03-19T13:39:33.885Z,16.09
2023-03-19T13:42:39.546Z,16.11
2023-03-19T13:45:42.783Z,16.25
2023-03-19T13:48:45.383Z,16.16
2023-03-19T13:51:49.123Z,16.06
2023-03-19T13:54:56.777Z,15.93
2023-03-19T13:58:12.334Z,15.83
2023-03-19T14:01:38.903Z,15.85
2023-03-19T14:04:50.985Z,15.79
2023-03-19T14:07:55.398Z,15.87
2023-03-19T14:11:03.755Z,16.18
2023-03-19T14:14:13.925Z,16.16
2023-03-19T14:17:27.454Z,16.19
2023-03-19T14:20:58.446Z,16.49
2023-03-19T14:24:56.683Z,16.49
2023-03-19T14:27:59.370Z,16.43
2023-03-19T14:31:03.623Z,16.31
2023-03-19T14:34:11.929Z,16.26
2023-03-19T14:37:25.989Z,16.15
2023-03-19T14:40:41.275Z,16.18
2023-03-19T14:44:02.485Z,16.23
2023-03-19T14:47:18.840Z,16.21
2023-03-19T14:50:58.724Z,16.11
2023-03-19T14:54:28.439Z,16.14
2023-03-19T14:57:33.897Z,16.25
2023-03-19T15:00:45.963Z,16.20
2023-03-19T15:03:59.162Z,16.08
2023-03-19T15:07:01.553Z,16.20
2023-03-19T15:10:07.485Z,16.11
2023-03-19T15:13:31.392Z,16.09
2023-03-19T15:16:40.162Z,16.02
2023-03-19T15:19:43.474Z,15.87
2023-03-19T15:22:59.816Z,15.69
2023-03-19T15:26:04.316Z,15.81
2023-03-19T15:29:11.727Z,15.64
2023-03-19T15:33:09.096Z,15.67
2023-03-19T15:36:24.655Z,15.49
2023-03-19T15:39:31.656Z,15.49
2023-03-19T15:42:34.814Z,15.28
2023-03-19T15:45:37.892Z,15.34
2023-03-19T15:48:49.861Z,15.37
2023-03-19T15:51:57.932Z,15.41
2023-03-19T15:55:01.653Z,15.41
2023-03-19T15:58:11.851Z,15.39
2023-03-19T16:01:17.085Z,15.37
2023-03-19T16:04:25.498Z,15.24
2023-03-19T16:07:30.696Z,15.18
2023-03-19T16:10:37.744Z,15.27
2023-03-19T16:13:42.196Z,15.25
2023-03-19T16:16:48.923Z,15.10
2023-03-19T16:20:00.239Z,15.04
2023-03-19T16:23:02.982Z,15.09
2023-03-19T16:26:17.265Z,15.06
2023-03-19T16:29:26.273Z,14.99
2023-03-19T16:32:30.878Z,14.92
2023-03-19T16:35:35.107Z,14.78
2023-03-19T16:38:44.719Z,14.83
2023-03-19T16:42:35.990Z,14.83
2023-03-19T16:45:38.530Z,14.77
2023-03-19T16:48:41.163Z,14.73
2023-03-19T16:51:43.539Z,14.67
2023-03-19T16:54:47.066Z,14.57
2023-03-19T16:57:57.538Z,14.54
2023-03-19T17:01:00.791Z,14.52
2023-03-19T17:04:11.336Z,14.49
2023-03-19T17:07:13.992Z,14.39
2023-03-19T17:10:21.466Z,14.50
2023-03-19T17:13:30.164Z,14.40
2023-03-19T17:16:33.536Z,14.44
2023-03-19T17:19:36.900Z,14.61
2023-03-19T17:22:39.257Z,14.58
2023-03-19T17:25:42.160Z,14.44
2023-03-19T17:28:45.312Z,14.51
2023-03-19T17:31:48.257Z,14.39
2023-03-19T17:34:50.893Z,14.46
2023-03-19T17:37:53.529Z,14.43
2023-03-19T17:40:55.821Z,14.30
2023-03-19T17:43:58.829Z,14.36
2023-03-19T17:47:01.354Z,14.33
2023-03-19T17:50:08.123Z,14.30
2023-03-19T17:53:12.478Z,14.30
2023-03-19T17:56:17.387Z,14.24
2023-03-19T17:59:19.839Z,14.27
2023-03-19T18:02:32.058Z,14.14
2023-03-19T18:05:34.734Z,14.11
2023-03-19T18:08:37.044Z,14.19
2023-03-19T18:11:39.794Z,14.19
2023-03-19T18:14:42.226Z,14.17
2023-03-19T18:17:54.243Z,14.03
2023-03-19T18:20:58.433Z,14.09
2023-03-19T18:24:02.167Z,14.07
2023-03-19T18:27:04.631Z,14.05
2023-03-19T18:30:08.021Z,13.99
2023-03-19T18:33:28.775Z,13.97
2023-03-19T18:36:32.982Z,13.91
2023-03-19T18:39:38.131Z,13.89
2023-03-19T18:42:40.834Z,13.88
2023-03-19T18:45:45.468Z,13.89
2023-03-19T18:48:48.555Z,13.78
2023-03-19T18:52:02.022Z,13.86
2023-03-19T18:55:05.978Z,13.75
2023-03-19T18:58:15.607Z,13.72
2023-03-19T19:01:19.672Z,13.71
2023-03-19T19:04:22.044Z,13.75
2023-03-19T19:07:24.758Z,13.66
2023-03-19T19:10:33.000Z,13.69
2023-03-19T19:13:46.341Z,13.75
2023-03-19T19:16:57.032Z,13.62
2023-03-19T19:19:59.704Z,13.61
2023-03-19T19:23:02.014Z,13.58
2023-03-19T19:26:05.518Z,13.56
2023-03-19T19:29:08.111Z,13.53
2023-03-19T19:32:32.321Z,13.53
2023-03-19T19:35:34.909Z,13.50
2023-03-19T19:38:37.584Z,13.49
2023-03-19T19:41:40.926Z,13.38
2023-03-19T19:44:51.753Z,13.49
2023-03-19T19:47:54.161Z,13.47
2023-03-19T19:50:57.420Z,13.45
2023-03-19T19:54:00.923Z,13.45
2023-03-19T19:57:03.698Z,13.45
2023-03-19T20:00:16.962Z,13.38
2023-03-19T20:03:31.326Z,13.31
2023-03-19T20:06:33.990Z,13.38
2023-03-19T20:09:36.679Z,13.30
2023-03-19T20:12:42.824Z,13.21
2023-03-19T20:15:46.855Z,13.29
2023-03-19T20:18:51.062Z,13.18
2023-03-19T20:21:54.323Z,13.26
2023-03-19T20:24:58.056Z,13.14
2023-03-19T20:28:02.082Z,13.19
2023-03-19T20:31:05.182Z,13.16
2023-03-19T20:34:20.375Z,13.08
2023-03-19T20:37:31.757Z,12.80
2023-03-19T20:40:38.895Z,12.83
2023-03-19T20:43:41.573Z,12.72
2023-03-19T20:46:43.891Z,12.67
2023-03-19T20:49:47.886Z,12.51
2023-03-19T20:52:51.802Z,12.45
2023-03-19T20:55:54.903Z,12.36
2023-03-19T20:58:57.286Z,12.32
2023-03-19T21:01:59.938Z,12.35
2023-03-19T21:05:07.516Z,12.31
2023-03-19T21:08:19.658Z,12.26
2023-03-19T21:11:23.971Z,12.21
2023-03-19T21:14:27.512Z,12.22
2023-03-19T21:17:30.114Z,12.16
2023-03-19T21:20:33.575Z,12.12
2023-03-19T21:23:38.297Z,12.07
2023-03-19T21:26:41.919Z,11.93
2023-03-19T21:29:44.250Z,12.01
2023-03-19T21:32:47.413Z,11.96
2023-03-19T21:35:50.083Z,11.90
2023-03-19T21:38:52.712Z,11.91
2023-03-19T21:41:57.102Z,11.91
2023-03-19T21:45:00.166Z,11.89
2023-03-19T21:48:20.210Z,11.85
2023-03-19T21:51:25.148Z,11.84
2023-03-19T21:54:27.578Z,11.69
2023-03-19T21:57:30.283Z,11.80
2023-03-19T22:00:32.805Z,11.79
2023-03-19T22:03:35.431Z,11.77
2023-03-19T22:06:38.987Z,11.80
2023-03-19T22:09:41.605Z,11.71
2023-03-19T22:12:45.318Z,11.62
2023-03-19T22:15:49.556Z,11.74
2023-03-19T22:18:52.766Z,11.74
2023-03-19T22:21:55.411Z,11.73
2023-03-19T22:25:00.292Z,11.74
2023-03-19T22:28:33.504Z,11.70
2023-03-19T22:31:35.946Z,11.66
2023-03-19T22:34:38.734Z,11.66
2023-03-19T22:37:41.030Z,11.63
2023-03-19T22:40:47.133Z,11.51
2023-03-19T22:43:49.930Z,11.47
2023-03-19T22:46:53.990Z,11.45
2023-03-19T22:49:56.304Z,11.41
2023-03-19T22:52:59.215Z,11.51
2023-03-19T22:56:03.055Z,11.46
2023-03-19T22:59:05.635Z,11.45
2023-03-19T23:02:14.084Z,11.38
2023-03-19T23:05:32.313Z,11.29
2023-03-19T23:08:34.583Z,11.24
2023-03-19T23:11:39.454Z,11.34
2023-03-19T23:14:41.763Z,11.32
2023-03-19T23:17:46.385Z,11.31
2023-03-19T23:20:48.979Z,11.31
2023-03-19T23:23:52.274Z,11.27
2023-03-19T23:26:57.012Z,11.26
2023-03-19T23:29:59.666Z,11.22
2023-03-19T23:33:03.233Z,11.16
2023-03-19T23:36:06.286Z,11.06
2023-03-19T23:39:09.488Z,11.13
2023-03-19T23:42:24.611Z,11.04
2023-03-19T23:45:40.054Z,11.12
2023-03-19T23:48:42.697Z,11.11
2023-03-19T23:51:45.003Z,11.11
2023-03-19T23:54:47.590Z,11.07
2023-03-19T23:57:50.722Z,11.01
